sensor_id;sensor_type;location;lat;lon;timestamp;temperature;humidity
16846;DHT22;8539;53.188;8.696;2022-11-21T00:01:26;-3.20;99.90
16846;DHT22;8539;53.188;8.696;2022-11-21T00:03:53;-3.20;99.90
16846;DHT22;8539;53.188;8.696;2022-11-21T00:06:19;-3.20;99.90
16846;DHT22;8539;53.188;8.696;2022-11-21T00:08:46;-3.20;99.90
16846;DHT22;8539;53.188;8.696;2022-11-21T00:11:46;-3.20;99.90
16846;DHT22;8539;53.188;8.696;2022-11-21T00:14:12;-3.20;99.90
16846;DHT22;8539;53.188;8.696;2022-11-21T00:16:38;-3.20;99.90
16846;DHT22;8539;53.188;8.696;2022-11-21T00:19:04;-3.20;99.90
16846;DHT22;8539;53.188;8.696;2022-11-21T00:21:30;-2.90;99.90
16846;DHT22;8539;53.188;8.696;2022-11-21T00:24:02;-3.20;99.90
16846;DHT22;8539;53.188;8.696;2022-11-21T00:26:28;-3.20;99.90
16846;DHT22;8539;53.188;8.696;2022-11-21T00:28:54;-2.90;99.90
16846;DHT22;8539;53.188;8.696;2022-11-21T00:31:22;-3.20;99.90
16846;DHT22;8539;53.188;8.696;2022-11-21T00:34:12;-3.20;99.90
16846;DHT22;8539;53.188;8.696;2022-11-21T00:36:38;-3.20;99.90
16846;DHT22;8539;53.188;8.696;2022-11-21T00:39:04;-3.10;99.90
16846;DHT22;8539;53.188;8.696;2022-11-21T00:41:30;-3.10;99.90
16846;DHT22;8539;53.188;8.696;2022-11-21T00:43:56;-3.20;99.90
16846;DHT22;8539;53.188;8.696;2022-11-21T00:46:22;-3.10;99.90
16846;DHT22;8539;53.188;8.696;2022-11-21T00:48:48;-3.10;99.90
16846;DHT22;8539;53.188;8.696;2022-11-21T00:51:14;-3.10;99.90
16846;DHT22;8539;53.188;8.696;2022-11-21T00:53:40;-2.90;99.90
16846;DHT22;8539;53.188;8.696;2022-11-21T00:56:07;-3.10;99.90
16846;DHT22;8539;53.188;8.696;2022-11-21T00:58:33;-3.10;99.90
16846;DHT22;8539;53.188;8.696;2022-11-21T01:01:09;-3.00;99.90
16846;DHT22;8539;53.188;8.696;2022-11-21T01:03:54;-3.00;99.90
16846;DHT22;8539;53.188;8.696;2022-11-21T01:06:20;-3.00;99.90
16846;DHT22;8539;53.188;8.696;2022-11-21T01:08:46;-1.80;99.90
16846;DHT22;8539;53.188;8.696;2022-11-21T01:11:15;-3.00;99.90
16846;DHT22;8539;53.188;8.696;2022-11-21T01:13:41;-2.80;99.90
16846;DHT22;8539;53.188;8.696;2022-11-21T01:16:16;-2.40;99.90
16846;DHT22;8539;53.188;8.696;2022-11-21T01:18:42;-3.00;99.90
16846;DHT22;8539;53.188;8.696;2022-11-21T01:21:14;-3.00;99.90
16846;DHT22;8539;53.188;8.696;2022-11-21T01:23:41;-3.00;99.90
16846;DHT22;8539;53.188;8.696;2022-11-21T01:26:19;-3.00;99.90
16846;DHT22;8539;53.188;8.696;2022-11-21T01:28:45;-2.90;99.90
16846;DHT22;8539;53.188;8.696;2022-11-21T01:31:14;-2.90;99.90
16846;DHT22;8539;53.188;8.696;2022-11-21T01:33:41;-3.00;99.90
16846;DHT22;8539;53.188;8.696;2022-11-21T01:36:13;-2.50;99.90
16846;DHT22;8539;53.188;8.696;2022-11-21T01:39:09;-3.00;99.90
16846;DHT22;8539;53.188;8.696;2022-11-21T01:41:41;-3.00;99.90
16846;DHT22;8539;53.188;8.696;2022-11-21T01:44:15;-3.00;99.90
16846;DHT22;8539;53.188;8.696;2022-11-21T01:46:43;-3.10;99.90
16846;DHT22;8539;53.188;8.696;2022-11-21T01:49:13;-3.10;99.90
16846;DHT22;8539;53.188;8.696;2022-11-21T01:54:48;-3.10;99.90
16846;DHT22;8539;53.188;8.696;2022-11-21T01:57:41;-3.20;99.90
16846;DHT22;8539;53.188;8.696;2022-11-21T02:00:18;-3.20;99.90
16846;DHT22;8539;53.188;8.696;2022-11-21T02:02:53;-3.10;99.90
16846;DHT22;8539;53.188;8.696;2022-11-21T02:05:32;-3.30;99.90
16846;DHT22;8539;53.188;8.696;2022-11-21T02:08:05;-3.40;99.90
16846;DHT22;8539;53.188;8.696;2022-11-21T02:10:34;-3.40;99.90
16846;DHT22;8539;53.188;8.696;2022-11-21T02:13:01;-3.30;99.90
16846;DHT22;8539;53.188;8.696;2022-11-21T02:15:28;-2.90;99.90
16846;DHT22;8539;53.188;8.696;2022-11-21T02:17:54;-2.90;99.90
16846;DHT22;8539;53.188;8.696;2022-11-21T02:20:25;-3.30;99.90
16846;DHT22;8539;53.188;8.696;2022-11-21T02:25:26;-3.70;99.90
16846;DHT22;8539;53.188;8.696;2022-11-21T02:28:10;-3.70;99.90
16846;DHT22;8539;53.188;8.696;2022-11-21T02:30:38;-3.80;99.90
16846;DHT22;8539;53.188;8.696;2022-11-21T02:33:05;-3.80;99.90
16846;DHT22;8539;53.188;8.696;2022-11-21T02:35:31;-3.80;99.90
16846;DHT22;8539;53.188;8.696;2022-11-21T02:38:12;-3.70;99.90
16846;DHT22;8539;53.188;8.696;2022-11-21T02:40:50;-3.90;99.90
16846;DHT22;8539;53.188;8.696;2022-11-21T02:43:23;-3.90;99.90
16846;DHT22;8539;53.188;8.696;2022-11-21T02:45:49;-4.00;99.90
16846;DHT22;8539;53.188;8.696;2022-11-21T02:48:15;-4.00;99.90
16846;DHT22;8539;53.188;8.696;2022-11-21T02:50:43;-4.00;99.90
16846;DHT22;8539;53.188;8.696;2022-11-21T02:53:15;-4.10;99.90
16846;DHT22;8539;53.188;8.696;2022-11-21T02:55:42;-4.00;99.90
16846;DHT22;8539;53.188;8.696;2022-11-21T02:58:08;-4.10;99.90
16846;DHT22;8539;53.188;8.696;2022-11-21T03:00:35;-4.20;99.90
16846;DHT22;8539;53.188;8.696;2022-11-21T03:03:02;-4.20;99.90
16846;DHT22;8539;53.188;8.696;2022-11-21T03:05:28;-4.20;99.90
16846;DHT22;8539;53.188;8.696;2022-11-21T03:07:55;-4.20;99.90
16846;DHT22;8539;53.188;8.696;2022-11-21T03:10:21;-4.20;99.90
16846;DHT22;8539;53.188;8.696;2022-11-21T03:12:47;-4.30;99.90
16846;DHT22;8539;53.188;8.696;2022-11-21T03:15:14;-4.30;99.90
16846;DHT22;8539;53.188;8.696;2022-11-21T03:17:41;-4.30;99.90
16846;DHT22;8539;53.188;8.696;2022-11-21T03:20:09;-4.40;99.90
16846;DHT22;8539;53.188;8.696;2022-11-21T03:22:35;-4.40;99.90
16846;DHT22;8539;53.188;8.696;2022-11-21T03:25:01;-4.40;99.90
16846;DHT22;8539;53.188;8.696;2022-11-21T03:27:27;-4.40;99.90
16846;DHT22;8539;53.188;8.696;2022-11-21T03:29:53;-4.50;99.90
16846;DHT22;8539;53.188;8.696;2022-11-21T03:32:19;-4.50;99.90
16846;DHT22;8539;53.188;8.696;2022-11-21T03:34:45;-4.50;99.90
16846;DHT22;8539;53.188;8.696;2022-11-21T03:37:11;-4.50;99.90
16846;DHT22;8539;53.188;8.696;2022-11-21T03:39:37;-4.50;99.90
16846;DHT22;8539;53.188;8.696;2022-11-21T03:42:03;-4.50;99.90
16846;DHT22;8539;53.188;8.696;2022-11-21T03:44:29;-4.60;99.90
16846;DHT22;8539;53.188;8.696;2022-11-21T03:46:55;-4.60;99.90
16846;DHT22;8539;53.188;8.696;2022-11-21T03:49:21;-4.60;99.90
16846;DHT22;8539;53.188;8.696;2022-11-21T03:51:47;-4.60;99.90
16846;DHT22;8539;53.188;8.696;2022-11-21T03:54:13;-4.60;99.90
16846;DHT22;8539;53.188;8.696;2022-11-21T03:56:39;-4.60;99.90
16846;DHT22;8539;53.188;8.696;2022-11-21T03:59:08;-4.60;99.90
16846;DHT22;8539;53.188;8.696;2022-11-21T04:01:34;-4.60;99.90
16846;DHT22;8539;53.188;8.696;2022-11-21T04:04:00;-4.70;99.90
16846;DHT22;8539;53.188;8.696;2022-11-21T04:06:26;-4.70;99.90
16846;DHT22;8539;53.188;8.696;2022-11-21T04:08:52;-4.70;99.90
16846;DHT22;8539;53.188;8.696;2022-11-21T04:11:18;-4.70;99.90
16846;DHT22;8539;53.188;8.696;2022-11-21T04:13:46;-4.70;99.90
16846;DHT22;8539;53.188;8.696;2022-11-21T04:16:12;-4.70;99.90
16846;DHT22;8539;53.188;8.696;2022-11-21T04:18:38;-4.70;99.90
16846;DHT22;8539;53.188;8.696;2022-11-21T04:21:06;-4.70;99.90
16846;DHT22;8539;53.188;8.696;2022-11-21T04:23:33;-4.70;99.90
16846;DHT22;8539;53.188;8.696;2022-11-21T04:25:59;-4.70;99.90
16846;DHT22;8539;53.188;8.696;2022-11-21T04:28:25;-4.70;99.90
16846;DHT22;8539;53.188;8.696;2022-11-21T04:30:51;-4.80;99.90
16846;DHT22;8539;53.188;8.696;2022-11-21T04:33:18;-4.80;99.90
16846;DHT22;8539;53.188;8.696;2022-11-21T04:35:45;-4.30;99.90
16846;DHT22;8539;53.188;8.696;2022-11-21T04:38:12;-4.80;99.90
16846;DHT22;8539;53.188;8.696;2022-11-21T04:40:38;-4.80;99.90
16846;DHT22;8539;53.188;8.696;2022-11-21T04:43:05;-4.80;99.90
16846;DHT22;8539;53.188;8.696;2022-11-21T04:45:31;-4.80;99.90
16846;DHT22;8539;53.188;8.696;2022-11-21T04:47:57;-4.80;99.90
16846;DHT22;8539;53.188;8.696;2022-11-21T04:50:23;-4.60;99.90
16846;DHT22;8539;53.188;8.696;2022-11-21T04:52:54;-4.80;99.90
16846;DHT22;8539;53.188;8.696;2022-11-21T04:55:22;-4.80;99.90
16846;DHT22;8539;53.188;8.696;2022-11-21T04:57:48;-4.80;99.90
16846;DHT22;8539;53.188;8.696;2022-11-21T05:00:16;-4.90;99.90
16846;DHT22;8539;53.188;8.696;2022-11-21T05:02:43;-4.90;99.90
16846;DHT22;8539;53.188;8.696;2022-11-21T05:05:10;-4.90;99.90
16846;DHT22;8539;53.188;8.696;2022-11-21T05:07:36;-4.90;99.90
16846;DHT22;8539;53.188;8.696;2022-11-21T05:10:06;-4.90;99.90
16846;DHT22;8539;53.188;8.696;2022-11-21T05:12:32;-5.00;99.90
16846;DHT22;8539;53.188;8.696;2022-11-21T05:15:17;-5.00;99.90
16846;DHT22;8539;53.188;8.696;2022-11-21T05:17:44;-5.00;99.90
16846;DHT22;8539;53.188;8.696;2022-11-21T05:20:11;-5.00;99.90
16846;DHT22;8539;53.188;8.696;2022-11-21T05:22:37;-4.90;99.90
16846;DHT22;8539;53.188;8.696;2022-11-21T05:25:04;-4.90;99.90
16846;DHT22;8539;53.188;8.696;2022-11-21T05:27:40;-5.00;99.90
16846;DHT22;8539;53.188;8.696;2022-11-21T05:30:10;-5.00;99.90
16846;DHT22;8539;53.188;8.696;2022-11-21T05:32:36;-5.00;99.90
16846;DHT22;8539;53.188;8.696;2022-11-21T05:35:02;-5.00;99.90
16846;DHT22;8539;53.188;8.696;2022-11-21T05:37:28;-5.00;99.90
16846;DHT22;8539;53.188;8.696;2022-11-21T05:39:54;-4.40;99.90
16846;DHT22;8539;53.188;8.696;2022-11-21T05:42:23;-4.50;99.90
16846;DHT22;8539;53.188;8.696;2022-11-21T05:45:08;-5.00;99.90
16846;DHT22;8539;53.188;8.696;2022-11-21T05:47:35;-5.10;99.90
16846;DHT22;8539;53.188;8.696;2022-11-21T05:50:01;-3.80;99.90
16846;DHT22;8539;53.188;8.696;2022-11-21T05:52:27;-5.00;99.90
16846;DHT22;8539;53.188;8.696;2022-11-21T05:54:53;-5.10;99.90
16846;DHT22;8539;53.188;8.696;2022-11-21T05:57:19;-5.00;99.90
16846;DHT22;8539;53.188;8.696;2022-11-21T05:59:45;-5.00;99.90
16846;DHT22;8539;53.188;8.696;2022-11-21T06:02:11;-5.00;99.90
16846;DHT22;8539;53.188;8.696;2022-11-21T06:04:55;-4.90;99.90
16846;DHT22;8539;53.188;8.696;2022-11-21T06:07:21;-4.70;99.90
16846;DHT22;8539;53.188;8.696;2022-11-21T06:09:48;-4.90;99.90
16846;DHT22;8539;53.188;8.696;2022-11-21T06:12:14;-5.00;99.90
16846;DHT22;8539;53.188;8.696;2022-11-21T06:14:40;-4.30;99.90
16846;DHT22;8539;53.188;8.696;2022-11-21T06:17:06;-4.00;99.90
16846;DHT22;8539;53.188;8.696;2022-11-21T06:19:32;-4.90;99.90
16846;DHT22;8539;53.188;8.696;2022-11-21T06:21:58;-5.10;99.90
16846;DHT22;8539;53.188;8.696;2022-11-21T06:24:24;-5.10;99.90
16846;DHT22;8539;53.188;8.696;2022-11-21T06:26:50;-5.10;99.90
16846;DHT22;8539;53.188;8.696;2022-11-21T06:29:16;-5.10;99.90
16846;DHT22;8539;53.188;8.696;2022-11-21T06:31:42;-5.10;99.90
16846;DHT22;8539;53.188;8.696;2022-11-21T06:34:08;-5.10;99.90
16846;DHT22;8539;53.188;8.696;2022-11-21T06:36:34;-5.00;99.90
16846;DHT22;8539;53.188;8.696;2022-11-21T06:39:00;-5.10;99.90
16846;DHT22;8539;53.188;8.696;2022-11-21T06:41:26;-5.10;99.90
16846;DHT22;8539;53.188;8.696;2022-11-21T06:44:00;-5.10;99.90
16846;DHT22;8539;53.188;8.696;2022-11-21T06:46:26;-5.10;99.90
16846;DHT22;8539;53.188;8.696;2022-11-21T06:48:53;-5.10;99.90
16846;DHT22;8539;53.188;8.696;2022-11-21T06:51:23;-5.20;99.90
16846;DHT22;8539;53.188;8.696;2022-11-21T06:53:54;-5.20;99.90
16846;DHT22;8539;53.188;8.696;2022-11-21T06:56:25;-5.20;99.90
16846;DHT22;8539;53.188;8.696;2022-11-21T06:58:52;-5.20;99.90
16846;DHT22;8539;53.188;8.696;2022-11-21T07:01:18;-5.20;99.90
16846;DHT22;8539;53.188;8.696;2022-11-21T07:03:44;-5.20;99.90
16846;DHT22;8539;53.188;8.696;2022-11-21T07:06:10;-5.20;99.90
16846;DHT22;8539;53.188;8.696;2022-11-21T07:08:36;-5.30;99.90
16846;DHT22;8539;53.188;8.696;2022-11-21T07:11:04;-5.20;99.90
16846;DHT22;8539;53.188;8.696;2022-11-21T07:13:31;-5.20;99.90
16846;DHT22;8539;53.188;8.696;2022-11-21T07:16:06;-5.20;99.90
16846;DHT22;8539;53.188;8.696;2022-11-21T07:18:33;-5.50;99.90
16846;DHT22;8539;53.188;8.696;2022-11-21T07:21:00;-5.20;99.90
16846;DHT22;8539;53.188;8.696;2022-11-21T07:23:28;-5.20;99.90
16846;DHT22;8539;53.188;8.696;2022-11-21T07:25:58;-5.10;99.90
16846;DHT22;8539;53.188;8.696;2022-11-21T07:28:24;-5.00;99.90
16846;DHT22;8539;53.188;8.696;2022-11-21T07:30:50;-5.00;99.90
16846;DHT22;8539;53.188;8.696;2022-11-21T07:33:16;-4.80;99.90
16846;DHT22;8539;53.188;8.696;2022-11-21T07:35:42;-4.90;99.90
16846;DHT22;8539;53.188;8.696;2022-11-21T07:38:08;-4.80;99.90
16846;DHT22;8539;53.188;8.696;2022-11-21T07:40:34;-4.80;99.90
16846;DHT22;8539;53.188;8.696;2022-11-21T07:43:02;-4.70;99.90
16846;DHT22;8539;53.188;8.696;2022-11-21T07:45:29;-4.70;99.90
16846;DHT22;8539;53.188;8.696;2022-11-21T07:48:03;-4.60;99.90
16846;DHT22;8539;53.188;8.696;2022-11-21T07:50:29;-4.60;99.90
16846;DHT22;8539;53.188;8.696;2022-11-21T07:53:01;-4.50;99.90
16846;DHT22;8539;53.188;8.696;2022-11-21T07:55:27;-4.50;99.90
16846;DHT22;8539;53.188;8.696;2022-11-21T07:58:05;-4.40;99.90
16846;DHT22;8539;53.188;8.696;2022-11-21T08:00:34;-4.40;99.90
16846;DHT22;8539;53.188;8.696;2022-11-21T08:03:00;-4.30;99.90
16846;DHT22;8539;53.188;8.696;2022-11-21T08:05:26;-4.30;99.90
16846;DHT22;8539;53.188;8.696;2022-11-21T08:07:52;-4.20;99.90
16846;DHT22;8539;53.188;8.696;2022-11-21T08:10:18;-4.10;99.90
16846;DHT22;8539;53.188;8.696;2022-11-21T08:12:44;-4.00;99.90
16846;DHT22;8539;53.188;8.696;2022-11-21T08:15:11;-4.00;99.90
16846;DHT22;8539;53.188;8.696;2022-11-21T08:17:38;-3.90;99.90
16846;DHT22;8539;53.188;8.696;2022-11-21T08:20:05;-3.80;99.90
16846;DHT22;8539;53.188;8.696;2022-11-21T08:22:36;-3.70;99.90
16846;DHT22;8539;53.188;8.696;2022-11-21T08:25:02;-3.60;99.90
16846;DHT22;8539;53.188;8.696;2022-11-21T08:27:28;-3.60;99.90
16846;DHT22;8539;53.188;8.696;2022-11-21T08:29:54;-3.50;99.90
16846;DHT22;8539;53.188;8.696;2022-11-21T08:32:20;-3.40;99.90
16846;DHT22;8539;53.188;8.696;2022-11-21T08:34:47;-3.40;99.90
16846;DHT22;8539;53.188;8.696;2022-11-21T08:37:16;-3.30;99.90
16846;DHT22;8539;53.188;8.696;2022-11-21T08:39:44;-3.20;99.90
16846;DHT22;8539;53.188;8.696;2022-11-21T08:42:10;-3.20;99.90
16846;DHT22;8539;53.188;8.696;2022-11-21T08:44:38;-3.10;99.90
16846;DHT22;8539;53.188;8.696;2022-11-21T08:47:04;-3.00;99.90
16846;DHT22;8539;53.188;8.696;2022-11-21T08:49:31;-2.90;99.90
16846;DHT22;8539;53.188;8.696;2022-11-21T08:51:57;-2.80;99.90
16846;DHT22;8539;53.188;8.696;2022-11-21T08:54:23;-2.70;99.90
16846;DHT22;8539;53.188;8.696;2022-11-21T08:56:50;-2.10;99.90
16846;DHT22;8539;53.188;8.696;2022-11-21T08:59:17;-1.80;99.90
16846;DHT22;8539;53.188;8.696;2022-11-21T09:01:43;-2.40;99.90
16846;DHT22;8539;53.188;8.696;2022-11-21T09:04:09;-2.30;99.90
16846;DHT22;8539;53.188;8.696;2022-11-21T09:06:36;-2.20;99.90
16846;DHT22;8539;53.188;8.696;2022-11-21T09:09:04;-2.10;99.90
16846;DHT22;8539;53.188;8.696;2022-11-21T09:11:31;-2.00;99.90
16846;DHT22;8539;53.188;8.696;2022-11-21T09:13:57;-1.90;99.90
16846;DHT22;8539;53.188;8.696;2022-11-21T09:16:43;-1.40;99.90
16846;DHT22;8539;53.188;8.696;2022-11-21T09:19:27;-1.70;99.90
16846;DHT22;8539;53.188;8.696;2022-11-21T09:21:53;-1.60;99.90
16846;DHT22;8539;53.188;8.696;2022-11-21T09:24:20;-1.50;99.90
16846;DHT22;8539;53.188;8.696;2022-11-21T09:26:46;-1.40;99.90
16846;DHT22;8539;53.188;8.696;2022-11-21T09:29:12;-1.10;99.90
16846;DHT22;8539;53.188;8.696;2022-11-21T09:31:40;-1.20;99.90
16846;DHT22;8539;53.188;8.696;2022-11-21T09:34:07;-1.10;99.90
16846;DHT22;8539;53.188;8.696;2022-11-21T09:36:33;-0.90;99.90
16846;DHT22;8539;53.188;8.696;2022-11-21T09:38:59;-0.80;99.90
16846;DHT22;8539;53.188;8.696;2022-11-21T09:47:28;-0.50;99.90
16846;DHT22;8539;53.188;8.696;2022-11-21T09:53:01;-0.10;99.90
16846;DHT22;8539;53.188;8.696;2022-11-21T09:58:31;-0.10;99.90
16846;DHT22;8539;53.188;8.696;2022-11-21T10:00:59;0.00;99.90
16846;DHT22;8539;53.188;8.696;2022-11-21T10:03:31;0.10;99.90
16846;DHT22;8539;53.188;8.696;2022-11-21T10:06:03;0.20;99.90
16846;DHT22;8539;53.188;8.696;2022-11-21T10:12:12;0.40;99.90
16846;DHT22;8539;53.188;8.696;2022-11-21T10:20:05;0.60;99.90
16846;DHT22;8539;53.188;8.696;2022-11-21T10:23:17;0.60;99.90
16846;DHT22;8539;53.188;8.696;2022-11-21T10:28:37;0.70;99.90
16846;DHT22;8539;53.188;8.696;2022-11-21T10:31:10;0.70;99.90
16846;DHT22;8539;53.188;8.696;2022-11-21T10:33:36;0.70;99.90
16846;DHT22;8539;53.188;8.696;2022-11-21T10:36:20;0.80;99.90
16846;DHT22;8539;53.188;8.696;2022-11-21T10:38:48;0.80;99.90
16846;DHT22;8539;53.188;8.696;2022-11-21T10:41:42;0.80;99.90
16846;DHT22;8539;53.188;8.696;2022-11-21T10:44:34;0.90;99.90
16846;DHT22;8539;53.188;8.696;2022-11-21T10:47:22;0.90;99.90
16846;DHT22;8539;53.188;8.696;2022-11-21T10:56:25;1.10;99.90
16846;DHT22;8539;53.188;8.696;2022-11-21T10:58:56;1.30;99.90
16846;DHT22;8539;53.188;8.696;2022-11-21T11:01:31;1.30;99.90
16846;DHT22;8539;53.188;8.696;2022-11-21T11:06:38;1.60;99.90
16846;DHT22;8539;53.188;8.696;2022-11-21T11:09:04;1.70;99.90
16846;DHT22;8539;53.188;8.696;2022-11-21T11:11:33;1.80;99.90
16846;DHT22;8539;53.188;8.696;2022-11-21T11:14:11;2.00;99.90
16846;DHT22;8539;53.188;8.696;2022-11-21T11:16:42;2.00;99.90
16846;DHT22;8539;53.188;8.696;2022-11-21T11:34:58;5.10;99.90
16846;DHT22;8539;53.188;8.696;2022-11-21T11:37:40;5.50;99.90
16846;DHT22;8539;53.188;8.696;2022-11-21T11:40:31;5.80;99.90
16846;DHT22;8539;53.188;8.696;2022-11-21T11:44:08;6.30;99.90
16846;DHT22;8539;53.188;8.696;2022-11-21T11:46:43;6.80;99.90
16846;DHT22;8539;53.188;8.696;2022-11-21T11:49:48;7.20;99.90
16846;DHT22;8539;53.188;8.696;2022-11-21T11:58:03;7.00;99.90
16846;DHT22;8539;53.188;8.696;2022-11-21T12:04:16;6.30;99.90
16846;DHT22;8539;53.188;8.696;2022-11-21T12:33:14;4.60;99.90
16846;DHT22;8539;53.188;8.696;2022-11-21T13:04:37;8.30;99.90
16846;DHT22;8539;53.188;8.696;2022-11-21T13:07:06;8.40;99.90
16846;DHT22;8539;53.188;8.696;2022-11-21T13:09:39;8.50;99.90
16846;DHT22;8539;53.188;8.696;2022-11-21T13:15:25;8.20;99.90
16846;DHT22;8539;53.188;8.696;2022-11-21T13:17:57;8.10;99.90
16846;DHT22;8539;53.188;8.696;2022-11-21T13:20:29;8.20;99.90
16846;DHT22;8539;53.188;8.696;2022-11-21T14:32:51;4.30;99.90
16846;DHT22;8539;53.188;8.696;2022-11-21T14:35:20;4.00;99.90
16846;DHT22;8539;53.188;8.696;2022-11-21T14:37:47;3.70;99.90
16846;DHT22;8539;53.188;8.696;2022-11-21T14:40:20;4.10;99.90
16846;DHT22;8539;53.188;8.696;2022-11-21T14:42:46;3.30;99.90
16846;DHT22;8539;53.188;8.696;2022-11-21T14:45:22;3.10;99.90
16846;DHT22;8539;53.188;8.696;2022-11-21T14:47:50;2.90;99.90
16846;DHT22;8539;53.188;8.696;2022-11-21T14:50:35;3.90;99.90
16846;DHT22;8539;53.188;8.696;2022-11-21T14:53:03;2.80;99.90
16846;DHT22;8539;53.188;8.696;2022-11-21T14:55:31;2.90;99.90
16846;DHT22;8539;53.188;8.696;2022-11-21T14:57:59;2.40;99.90
16846;DHT22;8539;53.188;8.696;2022-11-21T15:00:29;2.30;99.90
16846;DHT22;8539;53.188;8.696;2022-11-21T15:02:57;2.20;99.90
16846;DHT22;8539;53.188;8.696;2022-11-21T15:05:32;2.60;99.90
16846;DHT22;8539;53.188;8.696;2022-11-21T15:07:58;2.00;99.90
16846;DHT22;8539;53.188;8.696;2022-11-21T15:10:32;2.50;99.90
16846;DHT22;8539;53.188;8.696;2022-11-21T15:13:10;1.80;99.90
16846;DHT22;8539;53.188;8.696;2022-11-21T15:15:47;2.30;99.90
16846;DHT22;8539;53.188;8.696;2022-11-21T15:18:22;1.60;99.90
16846;DHT22;8539;53.188;8.696;2022-11-21T15:20:51;1.50;99.90
16846;DHT22;8539;53.188;8.696;2022-11-21T15:23:35;1.30;99.90
16846;DHT22;8539;53.188;8.696;2022-11-21T15:26:03;1.20;99.90
16846;DHT22;8539;53.188;8.696;2022-11-21T15:28:54;1.30;99.90
16846;DHT22;8539;53.188;8.696;2022-11-21T15:31:21;1.00;99.90
16846;DHT22;8539;53.188;8.696;2022-11-21T15:34:02;0.90;99.90
16846;DHT22;8539;53.188;8.696;2022-11-21T15:36:31;0.80;99.90
16846;DHT22;8539;53.188;8.696;2022-11-21T15:41:34;0.70;99.90
16846;DHT22;8539;53.188;8.696;2022-11-21T15:46:34;0.60;99.90
16846;DHT22;8539;53.188;8.696;2022-11-21T15:49:07;0.60;99.90
16846;DHT22;8539;53.188;8.696;2022-11-21T15:51:45;0.50;99.90
16846;DHT22;8539;53.188;8.696;2022-11-21T15:54:19;0.50;99.90
16846;DHT22;8539;53.188;8.696;2022-11-21T15:56:46;0.40;99.90
16846;DHT22;8539;53.188;8.696;2022-11-21T15:59:13;0.60;99.90
16846;DHT22;8539;53.188;8.696;2022-11-21T16:01:39;1.20;99.90
16846;DHT22;8539;53.188;8.696;2022-11-21T16:04:07;0.30;99.90
16846;DHT22;8539;53.188;8.696;2022-11-21T16:06:34;0.60;99.90
16846;DHT22;8539;53.188;8.696;2022-11-21T16:09:00;0.40;99.90
16846;DHT22;8539;53.188;8.696;2022-11-21T16:11:28;0.20;99.90
16846;DHT22;8539;53.188;8.696;2022-11-21T16:13:59;0.20;99.90
16846;DHT22;8539;53.188;8.696;2022-11-21T16:16:27;0.10;99.90
16846;DHT22;8539;53.188;8.696;2022-11-21T16:18:55;0.10;99.90
16846;DHT22;8539;53.188;8.696;2022-11-21T16:21:22;0.10;99.90
16846;DHT22;8539;53.188;8.696;2022-11-21T16:23:48;0.10;99.90
16846;DHT22;8539;53.188;8.696;2022-11-21T16:26:15;0.30;99.90
16846;DHT22;8539;53.188;8.696;2022-11-21T16:28:41;-0.10;99.90
16846;DHT22;8539;53.188;8.696;2022-11-21T16:31:17;-0.20;99.90
16846;DHT22;8539;53.188;8.696;2022-11-21T16:33:44;-0.20;99.90
16846;DHT22;8539;53.188;8.696;2022-11-21T16:36:10;0.30;99.90
16846;DHT22;8539;53.188;8.696;2022-11-21T16:38:36;0.20;99.90
16846;DHT22;8539;53.188;8.696;2022-11-21T16:41:03;-0.30;99.90
16846;DHT22;8539;53.188;8.696;2022-11-21T16:43:30;-0.30;99.90
16846;DHT22;8539;53.188;8.696;2022-11-21T16:46:07;-0.30;99.90
16846;DHT22;8539;53.188;8.696;2022-11-21T16:48:33;-0.30;99.90
16846;DHT22;8539;53.188;8.696;2022-11-21T16:51:11;0.00;99.90
16846;DHT22;8539;53.188;8.696;2022-11-21T16:53:38;-0.40;99.90
16846;DHT22;8539;53.188;8.696;2022-11-21T16:56:04;-0.30;99.90
16846;DHT22;8539;53.188;8.696;2022-11-21T16:58:30;-0.50;99.90
16846;DHT22;8539;53.188;8.696;2022-11-21T17:00:57;-0.50;99.90
16846;DHT22;8539;53.188;8.696;2022-11-21T17:03:23;-0.40;99.90
16846;DHT22;8539;53.188;8.696;2022-11-21T17:05:56;-0.40;99.90
16846;DHT22;8539;53.188;8.696;2022-11-21T17:08:25;-0.50;99.90
16846;DHT22;8539;53.188;8.696;2022-11-21T17:10:52;-0.40;99.90
16846;DHT22;8539;53.188;8.696;2022-11-21T17:13:18;-0.50;99.90
16846;DHT22;8539;53.188;8.696;2022-11-21T17:15:44;-0.50;99.90
16846;DHT22;8539;53.188;8.696;2022-11-21T17:18:10;-0.40;99.90
16846;DHT22;8539;53.188;8.696;2022-11-21T17:20:36;-0.50;99.90
16846;DHT22;8539;53.188;8.696;2022-11-21T17:23:02;-0.60;99.90
16846;DHT22;8539;53.188;8.696;2022-11-21T17:25:28;-0.60;99.90
16846;DHT22;8539;53.188;8.696;2022-11-21T17:27:54;-0.60;99.90
16846;DHT22;8539;53.188;8.696;2022-11-21T17:30:21;-0.60;99.90
16846;DHT22;8539;53.188;8.696;2022-11-21T17:32:48;-0.60;99.90
16846;DHT22;8539;53.188;8.696;2022-11-21T17:35:14;0.00;99.90
16846;DHT22;8539;53.188;8.696;2022-11-21T17:37:40;-0.60;99.90
16846;DHT22;8539;53.188;8.696;2022-11-21T17:40:06;-0.50;99.90
16846;DHT22;8539;53.188;8.696;2022-11-21T17:42:37;-0.70;99.90
16846;DHT22;8539;53.188;8.696;2022-11-21T17:45:06;-0.70;99.90
16846;DHT22;8539;53.188;8.696;2022-11-21T17:47:33;-0.70;99.90
16846;DHT22;8539;53.188;8.696;2022-11-21T17:49:59;-0.70;99.90
16846;DHT22;8539;53.188;8.696;2022-11-21T17:52:25;-0.70;99.90
16846;DHT22;8539;53.188;8.696;2022-11-21T17:54:52;-0.70;99.90
16846;DHT22;8539;53.188;8.696;2022-11-21T17:57:18;-0.70;99.90
16846;DHT22;8539;53.188;8.696;2022-11-21T17:59:44;-0.70;99.90
16846;DHT22;8539;53.188;8.696;2022-11-21T18:02:10;-0.80;99.90
16846;DHT22;8539;53.188;8.696;2022-11-21T18:04:37;-0.80;99.90
16846;DHT22;8539;53.188;8.696;2022-11-21T18:07:04;-0.90;99.90
16846;DHT22;8539;53.188;8.696;2022-11-21T18:09:31;-0.60;99.90
16846;DHT22;8539;53.188;8.696;2022-11-21T18:11:57;-0.90;99.90
16846;DHT22;8539;53.188;8.696;2022-11-21T18:14:24;-0.90;99.90
16846;DHT22;8539;53.188;8.696;2022-11-21T18:16:53;-0.90;99.90
16846;DHT22;8539;53.188;8.696;2022-11-21T18:19:20;-1.00;99.90
16846;DHT22;8539;53.188;8.696;2022-11-21T18:21:47;-1.00;99.90
16846;DHT22;8539;53.188;8.696;2022-11-21T18:24:13;-0.90;99.90
16846;DHT22;8539;53.188;8.696;2022-11-21T18:26:39;-1.00;99.90
16846;DHT22;8539;53.188;8.696;2022-11-21T18:29:07;-1.00;99.90
16846;DHT22;8539;53.188;8.696;2022-11-21T18:31:34;-0.30;99.90
16846;DHT22;8539;53.188;8.696;2022-11-21T18:34:03;-1.10;99.90
16846;DHT22;8539;53.188;8.696;2022-11-21T18:36:30;-1.10;99.90
16846;DHT22;8539;53.188;8.696;2022-11-21T18:38:57;-1.10;99.90
16846;DHT22;8539;53.188;8.696;2022-11-21T18:41:26;-0.60;99.90
16846;DHT22;8539;53.188;8.696;2022-11-21T18:43:56;-0.80;99.90
16846;DHT22;8539;53.188;8.696;2022-11-21T18:46:24;-1.20;99.90
16846;DHT22;8539;53.188;8.696;2022-11-21T18:48:51;-0.30;99.90
16846;DHT22;8539;53.188;8.696;2022-11-21T18:51:21;-1.20;99.90
16846;DHT22;8539;53.188;8.696;2022-11-21T18:53:51;-0.20;99.90
16846;DHT22;8539;53.188;8.696;2022-11-21T18:56:18;-1.20;99.90
16846;DHT22;8539;53.188;8.696;2022-11-21T18:58:50;-0.90;99.90
16846;DHT22;8539;53.188;8.696;2022-11-21T19:01:19;-1.30;99.90
16846;DHT22;8539;53.188;8.696;2022-11-21T19:03:45;-1.30;99.90
16846;DHT22;8539;53.188;8.696;2022-11-21T19:06:13;-0.90;99.90
16846;DHT22;8539;53.188;8.696;2022-11-21T19:08:43;-1.30;99.90
16846;DHT22;8539;53.188;8.696;2022-11-21T19:11:13;-1.30;99.90
16846;DHT22;8539;53.188;8.696;2022-11-21T19:13:48;-1.30;99.90
16846;DHT22;8539;53.188;8.696;2022-11-21T19:16:25;-1.00;99.90
16846;DHT22;8539;53.188;8.696;2022-11-21T19:18:52;-1.30;99.90
16846;DHT22;8539;53.188;8.696;2022-11-21T19:21:19;-1.00;99.90